• Join FlightAware (Why Join?)
  • Login
  • US Flag 
10:22AM EDT


 

Airport Tracker/Info


-or-


 

Live Flight TrackerFlight Track Log ✈ N83413 ✈ 03-May-2013 ✈ KASN - KAHN

Flight Track Log - Related Links

Times and Time Zones

All times are in EDT time to prevent confusion due to time zone crossing. See the N83413 flight status page for this flight to view local times or setup timezone preferences in your user account.

Time Position Orientation Groundspeed Altitude Reporting Facility
EDT Latitude Longitude Course Direction KTS MPH feet Rate Location/Type
07:18PM 33.6367 -85.5467 79° East  Level FlightAware Approximate
07:19PM 33.6487 -85.4751 79° East  Level FlightAware Approximate
07:19PM 33.6094 -86.0119 80° East 168 193 2,600  Level Atlanta Center
07:20PM 33.6606 -85.4033 79° East  Level FlightAware Approximate
07:21PM 33.6667 -85.3309 90° East  Level FlightAware Approximate
07:22PM 33.6728 -85.2589 73° East  Level FlightAware Approximate
07:22PM 33.6258 -85.9025 80° East 268 308 6,300  Level Atlanta Center
07:23PM 33.6877 -85.1880 80° East  Level FlightAware Approximate
07:23PM 33.6328 -85.8503 81° East 209 241 7,800  Level Atlanta Center
07:24PM 33.6986 -85.1161 80° East  Level FlightAware Approximate
07:24PM 33.6400 -85.7856 82° East 178 205 15,000  Level Atlanta Center
07:25PM 33.7095 -85.0441 80° East  Level FlightAware Approximate
07:25PM 33.6514 -85.7233 78° East 178 205 10,700  Level Atlanta Center
07:26PM 33.6625 -85.6611 78° East 184 212 12,200 1,320 Climbing Atlanta Center
07:27PM 33.6675 -85.5939 85° East 189 217 13,400 1,200 Climbing Atlanta Center
07:28PM 33.6769 -85.5217 81° East 206 237 14,600 780 Climbing Atlanta Center
07:29PM 33.6858 -85.4544 81° East 218 251 15,000 180 Climbing Atlanta Center
07:30PM 33.6972 -85.3672 81° East 245 282 15,000  Level Atlanta Center
07:31PM 33.7108 -85.2775 80° East 266 306 15,000  Level Atlanta Center
07:32PM 33.7222 -85.1853 82° East 275 316 15,000  Level Atlanta Center
07:33PM 33.7333 -85.0928 82° East 275 316 15,000  Level Atlanta Center
07:34PM 33.7447 -85.0006 82° East 275 316 15,000  Level Atlanta Center
07:35PM 33.7578 -84.9083 80° East 275 316 15,000  Level Atlanta Center
07:36PM 33.7689 -84.8161 82° East 280 322 15,000  Level Atlanta Center
07:37PM 33.7819 -84.7236 80° East 280 322 15,000  Level Atlanta Center
07:38PM 33.7928 -84.6286 82° East 280 322 15,000  Level Atlanta Center
07:39PM 33.8036 -84.5339 82° East 280 322 15,000  Level Atlanta Center
07:40PM 33.8125 -84.4339 84° East 274 315 15,000  Level Atlanta Center
07:41PM 33.8211 -84.3414 84° East 274 315 15,000  Level Atlanta Center
07:42PM 33.8358 -84.2589 78° East 279 321 15,000 -120 Level Atlanta Center
07:43PM 33.8500 -84.1333 82° East 280 322 14,800 -780 Descending Atlanta TRACON
07:44PM 33.8500 -84.0500 90° East 280 322 13,400 -1,440 Descending Atlanta TRACON
07:45PM 33.8403 -83.9689 98° East 269 310 12,200 -1,440 Descending Atlanta Center
07:46PM 33.8422 -83.8886 88° East 255 293 10,700 -1,500 Descending Atlanta Center
07:47PM 33.8608 -83.8161 73° East 231 266 9,200 -1,500 Descending Atlanta Center
07:48PM 33.8858 -83.7486 66° East 223 257 7,700 -1,800 Descending Atlanta Center
07:49PM 33.9064 -83.6833 69° East 217 250 5,700 -2,160 Descending Atlanta Center
07:50PM 33.9250 -83.6208 70° East 200 230 3,400 -1,080 Descending Atlanta Center
07:52PM 33.9500 -83.5167 74° East 135 155 2,500 -300 Descending Atlanta TRACON
07:53PM 33.9500 -83.4833 90° East 126 145 2,500  Level Atlanta TRACON
07:54PM 33.9500 -83.4333 90° East 124 143 2,500 -360 Level Atlanta TRACON
07:55PM 33.9500 -83.4000 90° East 119 137 1,800 -660 Descending Atlanta TRACON
07:56PM 33.9500 -83.3667 90° East 112 129 1,200 -600 Descending Atlanta TRACON
07:58PM 33.9486 -83.3264 90° East  Level Estimated